Time;durP1;ratioP1;P1;durP2;ratioP2;P2;SDS_P1;SDS_P2;PMS_P1;PMS_P2;Temp;Humidity;BMP_temperature;BMP_pressure;BME280_temperature;BME280_humidity;BME280_pressure;Samples;Min_cycle;Max_cycle;Signal;HPM_P1;HPM_P2
2022/06/15 00:01:32;;;;;;;4.25;2.03;;;21.50;93.60;;;;;;5016796;28;20477;-88
2022/06/15 00:04:00;;;;;;;3.88;2.10;;;21.50;93.50;;;;;;5019373;28;20021;-88
2022/06/15 00:06:30;;;;;;;8.18;2.22;;;21.40;93.50;;;;;;5019462;28;20061;-88
2022/06/15 00:08:58;;;;;;;4.40;1.98;;;21.40;93.50;;;;;;5019379;28;20037;-88
2022/06/15 00:11:26;;;;;;;4.05;1.63;;;21.40;93.50;;;;;;5019428;28;20025;-88
2022/06/15 00:13:53;;;;;;;3.92;1.90;;;21.40;93.50;;;;;;5037083;28;20443;-88
2022/06/15 00:16:20;;;;;;;3.67;1.90;;;21.40;93.50;;;;;;5036697;28;20371;-88
2022/06/15 00:18:46;;;;;;;4.82;2.10;;;21.40;93.50;;;;;;5019225;28;20025;-88
2022/06/15 00:21:13;;;;;;;3.25;1.90;;;21.40;93.50;;;;;;5019218;28;20389;-88
2022/06/15 00:23:39;;;;;;;5.28;1.70;;;21.40;93.50;;;;;;5036787;28;20131;-88
2022/06/15 00:26:05;;;;;;;3.58;1.90;;;21.30;93.50;;;;;;5018889;28;20026;-88
2022/06/15 00:28:32;;;;;;;3.63;1.92;;;21.40;93.50;;;;;;5018925;28;20505;-88
2022/06/15 00:30:58;;;;;;;4.43;2.13;;;21.30;93.50;;;;;;5036660;28;20100;-88
2022/06/15 00:33:25;;;;;;;5.43;2.10;;;21.30;93.40;;;;;;5018869;28;20030;-88
2022/06/15 00:35:57;;;;;;;3.80;1.90;;;21.30;93.40;;;;;;5018787;28;20085;-88
2022/06/15 00:38:27;;;;;;;6.13;2.08;;;21.30;93.40;;;;;;5029457;28;20484;-88
2022/06/15 00:40:54;;;;;;;5.93;2.13;;;21.30;93.40;;;;;;5038439;28;20443;-89
2022/06/15 00:43:41;;;;;;;3.67;2.17;;;21.30;93.80;;;;;;5038427;28;20111;-88
2022/06/15 00:46:38;;;;;;;3.95;2.00;;;21.20;93.50;;;;;;5056356;28;20028;-88
2022/06/15 00:49:08;;;;;;;2.80;1.92;;;21.30;93.50;;;;;;5056237;28;20056;-88
2022/06/15 00:51:35;;;;;;;5.78;2.35;;;21.30;93.50;;;;;;5038389;28;20115;-88
2022/06/15 00:54:02;;;;;;;5.63;2.33;;;21.30;93.40;;;;;;5038139;28;20401;-88
2022/06/15 00:56:30;;;;;;;3.05;1.90;;;21.20;93.40;;;;;;5038155;28;20045;-88
2022/06/15 00:59:09;;;;;;;3.20;1.80;;;21.20;93.40;;;;;;5037920;28;20029;-88
2022/06/15 01:01:35;;;;;;;6.22;1.88;;;21.20;93.40;;;;;;5038241;28;20017;-88
2022/06/15 01:04:03;;;;;;;5.70;2.20;;;21.20;93.40;;;;;;5038086;28;20036;-88
2022/06/15 01:06:44;;;;;;;3.13;1.73;;;21.20;93.40;;;;;;5038252;28;20021;-87
2022/06/15 01:09:18;;;;;;;4.18;2.00;;;21.20;93.40;;;;;;5056017;28;20075;-88
2022/06/15 01:12:17;;;;;;;4.60;2.28;;;21.10;93.40;;;;;;5038236;28;20115;-87
2022/06/15 01:14:43;;;;;;;3.33;2.03;;;21.10;93.40;;;;;;5055392;28;20021;-87
2022/06/15 01:17:55;;;;;;;4.45;1.98;;;21.10;93.30;;;;;;5037687;28;20476;-88
2022/06/15 01:20:44;;;;;;;3.90;2.20;;;21.10;93.30;;;;;;4974873;28;20136;-88
2022/06/15 01:23:29;;;;;;;5.13;2.22;;;21.10;93.40;;;;;;5037600;28;20487;-88
2022/06/15 01:26:07;;;;;;;3.75;2.20;;;21.10;93.30;;;;;;5055709;28;20512;-88
2022/06/15 01:28:49;;;;;;;4.30;2.40;;;21.10;93.30;;;;;;5037482;28;20029;-88
2022/06/15 01:31:33;;;;;;;4.05;2.10;;;21.00;93.30;;;;;;5037536;28;20403;-88
2022/06/15 01:34:08;;;;;;;5.28;2.13;;;21.10;93.30;;;;;;5037474;28;20096;-88
2022/06/15 01:36:42;;;;;;;3.88;1.95;;;21.00;93.30;;;;;;5037880;28;20059;-88
2022/06/15 01:39:15;;;;;;;5.10;2.30;;;21.00;93.30;;;;;;5037109;28;20095;-88
2022/06/15 01:42:02;;;;;;;2.97;1.75;;;21.00;93.30;;;;;;5055134;28;20092;-88
2022/06/15 01:44:41;;;;;;;5.50;2.40;;;21.00;93.30;;;;;;5037231;28;20035;-88
2022/06/15 01:47:14;;;;;;;6.18;2.17;;;21.00;93.30;;;;;;5037055;28;20017;-88
2022/06/15 01:49:53;;;;;;;4.47;1.83;;;21.00;93.30;;;;;;5055115;28;20074;-88
2022/06/15 01:52:23;;;;;;;6.05;2.35;;;20.90;93.30;;;;;;5037044;28;20503;-89
2022/06/15 01:54:55;;;;;;;7.38;2.38;;;20.90;93.30;;;;;;5037085;28;20032;-88
2022/06/15 01:57:23;;;;;;;3.90;2.20;;;20.90;93.30;;;;;;5037087;28;20511;-88
2022/06/15 02:00:00;;;;;;;3.38;2.20;;;20.90;93.30;;;;;;5036902;28;20017;-88
2022/06/15 02:02:38;;;;;;;4.82;2.33;;;20.90;93.30;;;;;;5036938;28;20033;-88
2022/06/15 02:05:30;;;;;;;5.85;2.22;;;20.90;93.30;;;;;;5036832;28;20036;-88
2022/06/15 02:07:55;;;;;;;6.97;2.28;;;20.80;93.30;;;;;;5036778;28;20082;-88
2022/06/15 02:10:45;;;;;;;5.03;2.35;;;20.90;93.30;;;;;;5054565;28;20028;-88
2022/06/15 02:13:23;;;;;;;3.95;2.00;;;20.90;93.30;;;;;;5036601;28;20025;-87
2022/06/15 02:15:54;;;;;;;3.33;2.17;;;20.80;93.30;;;;;;5036586;28;20025;-89
2022/06/15 02:18:24;;;;;;;6.20;2.13;;;20.80;93.30;;;;;;5037326;28;20037;-89
2022/06/15 02:21:01;;;;;;;4.53;2.45;;;20.80;93.30;;;;;;5036519;28;20025;-89
2022/06/15 02:23:31;;;;;;;4.15;2.10;;;20.80;93.30;;;;;;5036409;28;20071;-89
2022/06/15 02:25:58;;;;;;;3.17;2.13;;;20.80;93.30;;;;;;5035409;28;20040;-88
2022/06/15 02:28:28;;;;;;;4.68;2.33;;;20.80;93.30;;;;;;5054260;28;20021;-90
2022/06/15 02:30:54;;;;;;;5.28;2.30;;;20.80;93.30;;;;;;5036346;28;20481;-89
2022/06/15 02:33:24;;;;;;;4.38;2.00;;;20.80;93.30;;;;;;5036206;28;20032;-89
2022/06/15 02:35:50;;;;;;;6.30;2.42;;;20.70;93.30;;;;;;5036249;28;20061;-88
2022/06/15 02:38:16;;;;;;;3.70;2.25;;;20.70;93.30;;;;;;5035935;28;20048;-88
2022/06/15 02:40:42;;;;;;;6.75;2.17;;;20.70;93.30;;;;;;5054132;28;20075;-89
2022/06/15 02:43:08;;;;;;;6.68;2.03;;;20.70;93.40;;;;;;5036290;28;20067;-88
2022/06/15 02:45:38;;;;;;;5.68;2.55;;;20.70;93.30;;;;;;5036147;28;20025;-88
2022/06/15 02:48:06;;;;;;;3.78;2.20;;;20.70;93.30;;;;;;5054078;28;20499;-88
2022/06/15 02:50:40;;;;;;;4.57;2.45;;;20.70;93.30;;;;;;5036139;28;20129;-88
2022/06/15 02:53:11;;;;;;;3.78;2.20;;;20.70;93.30;;;;;;5036003;28;20029;-88
2022/06/15 02:55:37;;;;;;;3.42;2.10;;;20.70;93.30;;;;;;5054068;28;20519;-88
2022/06/15 02:58:20;;;;;;;5.80;2.08;;;20.70;93.30;;;;;;5035954;28;20021;-88
2022/06/15 03:00:46;;;;;;;7.95;2.30;;;20.70;93.30;;;;;;5035965;28;20032;-88
2022/06/15 03:03:12;;;;;;;5.07;2.35;;;20.60;93.30;;;;;;5053752;28;20029;-88
2022/06/15 03:05:37;;;;;;;3.88;2.15;;;20.60;93.30;;;;;;5035777;28;20025;-88
2022/06/15 03:08:03;;;;;;;4.85;2.13;;;20.60;93.30;;;;;;5035782;28;20079;-88
2022/06/15 03:10:29;;;;;;;3.85;2.13;;;20.60;93.30;;;;;;5035717;28;20038;-89
2022/06/15 03:12:54;;;;;;;2.80;1.77;;;20.60;93.30;;;;;;5035689;28;20021;-89
2022/06/15 03:15:20;;;;;;;5.15;2.55;;;20.60;93.30;;;;;;5035597;28;20487;-88
2022/06/15 03:17:46;;;;;;;4.72;2.33;;;20.60;93.40;;;;;;5035643;28;20075;-88
2022/06/15 03:20:12;;;;;;;7.38;2.15;;;20.60;93.40;;;;;;5053441;28;20104;-88
2022/06/15 03:22:37;;;;;;;2.92;1.90;;;20.50;93.30;;;;;;5036289;28;20031;-88
2022/06/15 03:25:04;;;;;;;5.80;2.00;;;20.50;93.30;;;;;;5035459;28;20029;-88
2022/06/15 03:27:30;;;;;;;3.45;2.05;;;20.50;93.30;;;;;;5036056;28;20029;-88
2022/06/15 03:29:56;;;;;;;4.50;2.30;;;20.50;93.30;;;;;;5035485;28;20029;-88
2022/06/15 03:32:21;;;;;;;6.82;2.33;;;20.50;93.30;;;;;;5035513;28;20473;-88
2022/06/15 03:34:47;;;;;;;8.52;2.08;;;20.50;93.40;;;;;;5035449;28;20025;-88
2022/06/15 03:37:13;;;;;;;3.50;1.98;;;20.50;93.30;;;;;;5037994;28;20024;-88
2022/06/15 03:39:39;;;;;;;6.10;2.50;;;20.50;93.30;;;;;;5039960;28;20095;-88
2022/06/15 03:42:15;;;;;;;6.43;2.22;;;20.50;93.30;;;;;;5039831;28;20529;-89
2022/06/15 03:44:41;;;;;;;4.63;2.30;;;20.40;93.30;;;;;;5040127;28;20363;-88
2022/06/15 03:47:17;;;;;;;3.08;2.03;;;20.40;93.30;;;;;;5040495;28;20029;-88
2022/06/15 03:49:53;;;;;;;5.68;2.20;;;20.40;93.40;;;;;;5022606;28;20128;-88
2022/06/15 03:52:21;;;;;;;5.80;2.08;;;20.40;93.40;;;;;;5022613;28;20033;-88
2022/06/15 03:54:47;;;;;;;7.22;2.33;;;20.40;93.40;;;;;;5023332;28;20032;-88
2022/06/15 03:57:15;;;;;;;4.32;2.00;;;20.40;93.40;;;;;;5022454;28;20428;-88
2022/06/15 03:59:41;;;;;;;3.53;2.00;;;20.40;93.70;;;;;;5022102;28;20017;-88
2022/06/15 04:02:07;;;;;;;6.45;2.05;;;20.40;93.30;;;;;;5021891;28;20030;-88
2022/06/15 04:04:33;;;;;;;6.78;2.30;;;20.40;93.30;;;;;;5040356;28;20388;-88
2022/06/15 04:06:59;;;;;;;3.65;1.98;;;20.40;93.30;;;;;;5022225;28;20021;-88
2022/06/15 04:09:27;;;;;;;2.53;1.80;;;20.40;93.30;;;;;;5022421;28;20018;-88
2022/06/15 04:12:01;;;;;;;3.47;2.13;;;20.30;93.30;;;;;;5039961;28;20473;-88
2022/06/15 04:14:27;;;;;;;;;;;20.30;93.30;;;;;;5040551;28;20473;-88
2022/06/15 04:16:53;;;;;;;9.60;2.15;;;20.30;93.30;;;;;;5022547;28;20373;-88
2022/06/15 04:19:24;;;;;;;5.25;2.10;;;20.30;93.30;;;;;;5021798;28;20197;-89
2022/06/15 04:21:50;;;;;;;3.88;2.20;;;20.30;93.30;;;;;;5021826;28;20021;-89
2022/06/15 04:24:17;;;;;;;5.88;2.13;;;20.30;93.30;;;;;;5022139;28;20025;-88
2022/06/15 04:26:45;;;;;;;3.47;1.92;;;20.30;93.30;;;;;;5021885;28;20056;-88
2022/06/15 04:29:11;;;;;;;8.10;1.95;;;20.30;93.40;;;;;;5021777;28;20028;-88
2022/06/15 04:31:40;;;;;;;2.50;1.88;;;20.30;93.40;;;;;;5021870;28;20392;-88
2022/06/15 04:34:07;;;;;;;3.53;2.03;;;20.30;93.30;;;;;;5021527;28;20032;-89
2022/06/15 04:36:33;;;;;;;4.88;2.30;;;20.20;93.40;;;;;;5022022;28;20143;-88
2022/06/15 04:38:59;;;;;;;5.95;1.90;;;20.20;93.40;;;;;;5037212;28;20072;-88
2022/06/15 04:41:25;;;;;;;3.15;1.83;;;20.30;93.40;;;;;;5041412;28;20036;-88
2022/06/15 04:43:51;;;;;;;6.72;2.22;;;20.30;93.80;;;;;;5059778;28;20095;-88
2022/06/15 04:46:17;;;;;;;6.78;2.13;;;20.20;93.40;;;;;;5059406;28;20063;-89
2022/06/15 04:48:43;;;;;;;3.95;1.95;;;20.20;93.50;;;;;;5038624;28;20071;-88
2022/06/15 04:51:23;;;;;;;3.88;2.22;;;20.20;93.50;;;;;;5038337;28;20024;-88
2022/06/15 04:53:51;;;;;;;4.53;2.20;;;20.20;93.50;;;;;;5038197;28;20199;-88
2022/06/15 04:56:17;;;;;;;5.72;2.78;;;20.20;93.60;;;;;;5038734;28;20029;-88
2022/06/15 04:58:43;;;;;;;4.68;2.58;;;20.20;93.60;;;;;;5038164;28;20021;-89
2022/06/15 05:01:12;;;;;;;4.05;2.45;;;20.30;93.60;;;;;;5038033;28;20066;-88
2022/06/15 05:03:38;;;;;;;4.88;2.42;;;20.20;93.60;;;;;;5038011;28;20060;-88
2022/06/15 05:06:28;;;;;;;6.88;2.25;;;20.20;93.70;;;;;;5038024;28;20029;-88
2022/06/15 05:08:54;;;;;;;4.80;2.10;;;20.30;93.70;;;;;;5037886;28;20085;-88
2022/06/15 05:11:20;;;;;;;4.32;2.20;;;20.20;93.70;;;;;;5055793;28;20099;-88
2022/06/15 05:13:45;;;;;;;3.40;2.08;;;20.20;93.80;;;;;;5037713;28;20021;-88
2022/06/15 05:16:11;;;;;;;10.05;2.22;;;20.30;94.00;;;;;;5037813;28;20035;-88
2022/06/15 05:18:37;;;;;;;4.88;2.58;;;20.30;94.00;;;;;;5055557;28;20388;-88
2022/06/15 05:21:03;;;;;;;4.90;2.35;;;20.20;93.90;;;;;;5037560;28;20460;-87
2022/06/15 05:23:28;;;;;;;5.43;2.30;;;20.30;94.00;;;;;;5055680;28;20036;-88
2022/06/15 05:25:54;;;;;;;5.90;2.10;;;20.30;94.00;;;;;;5055441;28;20021;-88
2022/06/15 05:28:20;;;;;;;3.88;2.25;;;20.30;94.50;;;;;;5037461;28;20124;-88
2022/06/15 05:30:45;;;;;;;5.88;2.30;;;20.30;94.20;;;;;;5037723;28;20476;-88
2022/06/15 05:33:11;;;;;;;5.72;2.10;;;20.30;94.30;;;;;;5037316;28;20029;-88
2022/06/15 05:35:37;;;;;;;4.18;1.98;;;20.30;94.30;;;;;;5037572;28;20549;-88
2022/06/15 05:38:03;;;;;;;6.47;2.22;;;20.30;94.30;;;;;;5036974;28;20044;-89
2022/06/15 05:40:28;;;;;;;5.63;2.78;;;20.30;94.40;;;;;;5037246;28;20071;-88
2022/06/15 05:42:54;;;;;;;3.17;2.20;;;20.30;94.50;;;;;;5037241;28;20028;-88
2022/06/15 05:45:20;;;;;;;4.68;2.30;;;20.30;94.50;;;;;;5037504;28;20025;-88
2022/06/15 05:47:46;;;;;;;6.65;2.20;;;20.30;94.60;;;;;;5037109;28;20032;-88
2022/06/15 05:50:13;;;;;;;5.40;2.65;;;20.30;94.70;;;;;;5037050;28;20025;-88
2022/06/15 05:52:39;;;;;;;7.63;2.35;;;20.30;94.70;;;;;;5054949;28;20032;-88
2022/06/15 05:55:06;;;;;;;4.50;2.05;;;20.30;94.70;;;;;;5036965;28;20025;-88
2022/06/15 05:57:31;;;;;;;3.55;2.15;;;20.40;94.80;;;;;;5054941;28;20067;-88
2022/06/15 05:59:57;;;;;;;3.05;2.00;;;20.40;94.70;;;;;;5054541;28;20114;-88
2022/06/15 06:02:25;;;;;;;4.60;1.90;;;20.40;94.80;;;;;;5036973;28;20029;-88
2022/06/15 06:04:52;;;;;;;3.05;1.90;;;20.40;94.70;;;;;;5036962;28;20035;-88
2022/06/15 06:07:21;;;;;;;4.35;1.95;;;20.40;94.70;;;;;;5054882;28;20029;-89
2022/06/15 06:09:47;;;;;;;3.25;1.90;;;20.40;94.80;;;;;;5036530;28;20033;-88
2022/06/15 06:12:13;;;;;;;3.63;1.98;;;20.40;94.70;;;;;;5036528;28;20083;-88
2022/06/15 06:14:39;;;;;;;3.53;2.15;;;20.40;94.70;;;;;;5036696;28;20029;-88
2022/06/15 06:17:06;;;;;;;2.33;2.10;;;20.40;94.70;;;;;;5054505;28;20473;-88
2022/06/15 06:19:31;;;;;;;4.10;2.30;;;20.40;94.70;;;;;;5036589;28;20029;-88
2022/06/15 06:21:57;;;;;;;3.88;2.10;;;20.40;94.70;;;;;;5036379;28;20025;-88
2022/06/15 06:24:23;;;;;;;4.78;2.00;;;20.40;94.80;;;;;;5036403;28;20021;-88
2022/06/15 06:26:48;;;;;;;3.50;2.40;;;20.40;94.80;;;;;;5036382;28;20029;-87
2022/06/15 06:29:16;;;;;;;2.75;2.17;;;20.40;94.80;;;;;;5054181;28;20071;-88
2022/06/15 06:31:42;;;;;;;3.72;2.15;;;20.50;94.90;;;;;;5036261;28;20021;-88
2022/06/15 06:34:09;;;;;;;4.32;2.22;;;20.50;94.90;;;;;;5036166;28;20116;-88
2022/06/15 06:36:37;;;;;;;4.10;1.98;;;20.40;94.90;;;;;;5036198;28;20511;-88
2022/06/15 06:39:10;;;;;;;3.42;1.92;;;20.50;95.00;;;;;;5036008;28;20404;-88
2022/06/15 06:41:35;;;;;;;4.28;2.03;;;20.50;95.10;;;;;;5054043;28;20017;-88
2022/06/15 06:44:04;;;;;;;2.50;1.95;;;20.50;95.10;;;;;;5036065;28;20041;-88
2022/06/15 06:46:31;;;;;;;2.63;1.88;;;20.50;95.10;;;;;;5036036;28;20369;-88
2022/06/15 06:48:58;;;;;;;3.38;2.15;;;20.50;95.20;;;;;;5035965;28;20036;-88
2022/06/15 06:51:24;;;;;;;5.53;2.53;;;20.50;95.10;;;;;;5035914;28;20056;-88
2022/06/15 06:53:50;;;;;;;5.15;2.10;;;20.50;95.10;;;;;;5035772;28;20397;-87
2022/06/15 06:56:16;;;;;;;2.95;2.03;;;20.60;95.20;;;;;;5035779;28;20017;-87
2022/06/15 06:58:42;;;;;;;4.30;2.20;;;20.60;95.20;;;;;;5035680;28;20078;-88
2022/06/15 07:01:07;;;;;;;4.07;2.30;;;20.60;95.20;;;;;;5035782;28;20021;-87
2022/06/15 07:03:33;;;;;;;3.97;2.08;;;20.60;95.20;;;;;;5035715;28;20021;-88
2022/06/15 07:06:07;;;;;;;5.10;2.58;;;20.60;95.30;;;;;;5035687;28;20029;-88
2022/06/15 07:08:33;;;;;;;3.35;2.10;;;20.60;95.20;;;;;;5035809;28;20425;-88
2022/06/15 07:11:00;;;;;;;3.78;2.30;;;20.60;95.20;;;;;;5035011;28;20119;-88
2022/06/15 07:13:26;;;;;;;4.55;2.50;;;20.60;95.10;;;;;;5035405;28;20025;-87
2022/06/15 07:15:52;;;;;;;3.20;2.05;;;20.60;95.20;;;;;;5053411;28;20050;-88
2022/06/15 07:18:18;;;;;;;4.20;2.30;;;20.60;95.10;;;;;;5035540;28;20039;-88
2022/06/15 07:20:44;;;;;;;3.95;2.20;;;20.60;95.10;;;;;;5035416;28;20018;-87
2022/06/15 07:23:10;;;;;;;6.57;2.58;;;20.60;95.00;;;;;;5035393;28;20055;-88
2022/06/15 07:25:35;;;;;;;5.10;2.20;;;20.60;95.00;;;;;;5035379;28;20047;-87
2022/06/15 07:28:03;;;;;;;5.05;2.20;;;20.70;95.00;;;;;;5035444;28;20025;-87
2022/06/15 07:30:29;;;;;;;3.50;2.10;;;20.70;95.10;;;;;;5053470;28;20025;-87
2022/06/15 07:32:54;;;;;;;6.53;2.30;;;20.70;95.10;;;;;;5035314;28;20071;-87
2022/06/15 07:35:24;;;;;;;3.80;1.92;;;20.70;95.00;;;;;;5035264;28;20392;-88
2022/06/15 07:37:51;;;;;;;4.07;2.08;;;20.70;95.00;;;;;;5046857;28;20091;-88
2022/06/15 07:40:17;;;;;;;3.63;2.10;;;20.70;95.00;;;;;;5015438;28;20433;-87
2022/06/15 07:42:45;;;;;;;3.65;2.47;;;20.70;95.00;;;;;;5033136;28;20457;-87
2022/06/15 07:45:12;;;;;;;3.83;2.20;;;20.70;95.00;;;;;;5015572;28;20029;-87
2022/06/15 07:50:22;;;;;;;5.53;2.30;;;20.70;95.00;;;;;;5033723;28;20040;-87
2022/06/15 07:52:50;;;;;;;3.67;2.30;;;20.80;95.00;;;;;;5033012;28;20064;-88
2022/06/15 07:55:20;;;;;;;6.00;2.40;;;20.80;95.00;;;;;;5015300;28;20049;-88
2022/06/15 07:57:46;;;;;;;4.55;2.28;;;20.80;94.90;;;;;;5015330;28;20443;-87
2022/06/15 08:00:12;;;;;;;3.88;2.53;;;20.80;94.90;;;;;;5032964;28;20048;-87
2022/06/15 08:02:38;;;;;;;3.55;2.08;;;20.80;94.90;;;;;;5015225;28;20029;-87
2022/06/15 08:05:04;;;;;;;6.05;2.30;;;20.90;94.90;;;;;;5015256;28;20026;-87
2022/06/15 08:07:30;;;;;;;3.75;2.17;;;20.90;94.90;;;;;;5015268;28;20519;-88
2022/06/15 08:09:55;;;;;;;3.20;2.28;;;20.90;94.80;;;;;;5015272;28;20021;-86
2022/06/15 08:12:23;;;;;;;3.42;2.13;;;20.90;94.90;;;;;;5015184;28;20453;-87
2022/06/15 08:14:55;;;;;;;3.67;2.13;;;20.90;94.90;;;;;;5015161;28;20093;-87
2022/06/15 08:17:30;;;;;;;3.67;2.17;;;20.90;94.90;;;;;;5015393;28;20032;-87
2022/06/15 08:20:06;;;;;;;3.00;2.20;;;20.90;94.90;;;;;;5015330;28;20488;-87
2022/06/15 08:22:34;;;;;;;4.85;2.45;;;21.00;94.90;;;;;;5015213;28;20029;-87
2022/06/15 08:25:01;;;;;;;4.65;2.33;;;21.00;95.00;;;;;;5018217;28;20032;-87
2022/06/15 08:27:28;;;;;;;4.32;1.95;;;21.00;94.90;;;;;;5036803;28;20041;-87
2022/06/15 08:29:54;;;;;;;3.85;2.20;;;21.00;94.90;;;;;;5036499;28;20076;-87
2022/06/15 08:32:20;;;;;;;3.75;2.13;;;21.00;94.80;;;;;;5018632;28;20107;-87
2022/06/15 08:34:46;;;;;;;3.03;2.05;;;21.10;94.80;;;;;;5018710;28;20022;-88
2022/06/15 08:37:15;;;;;;;4.85;2.20;;;21.10;94.80;;;;;;5036497;28;20385;-87
2022/06/15 08:39:41;;;;;;;4.60;2.03;;;21.10;94.80;;;;;;5036406;28;20028;-88
2022/06/15 08:42:42;;;;;;;4.18;2.47;;;21.10;94.70;;;;;;5018501;28;20025;-87
2022/06/15 08:45:25;;;;;;;4.72;2.33;;;21.20;94.80;;;;;;5019278;28;20550;-87
2022/06/15 08:48:12;;;;;;;3.95;2.25;;;21.20;94.80;;;;;;5018570;28;20053;-87
2022/06/15 08:50:37;;;;;;;3.53;2.03;;;21.20;94.70;;;;;;5018438;28;20025;-87
2022/06/15 08:53:17;;;;;;;2.90;2.00;;;21.20;94.70;;;;;;5036175;28;20100;-87
2022/06/15 08:55:59;;;;;;;3.25;1.90;;;21.30;94.80;;;;;;5018902;28;20058;-88
2022/06/15 08:58:28;;;;;;;4.88;2.22;;;21.30;94.80;;;;;;5018492;28;20025;-87
2022/06/15 09:01:01;;;;;;;3.88;2.25;;;21.30;94.80;;;;;;5018247;28;20024;-88
2022/06/15 09:03:42;;;;;;;4.65;1.95;;;21.30;94.70;;;;;;5018277;28;20029;-88
2022/06/15 09:06:32;;;;;;;2.22;1.70;;;21.30;94.70;;;;;;5018192;28;20035;-87
2022/06/15 09:09:10;;;;;;;2.50;1.90;;;21.30;94.80;;;;;;5018137;28;20108;-88
2022/06/15 09:15:19;;;;;;;3.85;2.00;;;21.40;94.70;;;;;;5036023;28;20396;-87
2022/06/15 09:17:48;;;;;;;4.53;2.40;;;21.50;94.80;;;;;;5017188;28;20041;-87
2022/06/15 09:20:20;;;;;;;3.38;1.90;;;21.50;94.70;;;;;;5017855;28;20401;-87
2022/06/15 09:22:55;;;;;;;3.30;1.95;;;21.50;94.70;;;;;;5017991;28;20080;-87
2022/06/15 09:26:02;;;;;;;3.03;1.90;;;21.50;94.70;;;;;;5017803;28;20107;-87
2022/06/15 09:28:46;;;;;;;2.28;1.63;;;21.50;94.70;;;;;;5017764;28;20037;-88
2022/06/15 09:31:17;;;;;;;4.15;2.10;;;21.60;94.70;;;;;;5017671;28;20037;-88
2022/06/15 09:33:53;;;;;;;4.00;1.85;;;21.60;95.00;;;;;;5017975;28;20032;-87
2022/06/15 09:36:28;;;;;;;4.88;1.88;;;21.60;94.70;;;;;;5017631;28;20029;-88
2022/06/15 09:38:54;;;;;;;;;;;21.70;94.70;;;;;;5032828;28;20041;-88
2022/06/15 09:41:51;;;;;;;2.83;1.95;;;21.70;94.60;;;;;;5037487;28;19920;-88
2022/06/15 09:44:26;;;;;;;2.00;1.80;;;21.70;94.60;;;;;;5055331;28;20063;-87
2022/06/15 09:47:05;;;;;;;4.78;2.15;;;21.70;94.60;;;;;;5054984;28;20476;-88
2022/06/15 09:49:52;;;;;;;5.47;2.15;;;21.70;94.50;;;;;;5037146;28;20029;-88
2022/06/15 09:52:26;;;;;;;6.32;2.17;;;21.70;94.50;;;;;;5054948;28;20111;-88
2022/06/15 09:55:08;;;;;;;3.80;2.10;;;21.80;94.50;;;;;;5055117;28;20064;-88
2022/06/15 09:57:35;;;;;;;3.67;2.15;;;21.80;94.50;;;;;;5037161;28;20051;-88
2022/06/15 10:00:07;;;;;;;3.30;2.15;;;21.80;94.50;;;;;;5036838;28;20028;-87
2022/06/15 10:02:37;;;;;;;5.00;1.88;;;21.80;94.50;;;;;;5036862;28;20031;-87
2022/06/15 10:05:07;;;;;;;4.03;1.70;;;21.80;94.40;;;;;;5037140;28;20029;-88
2022/06/15 10:07:41;;;;;;;4.55;1.88;;;21.90;94.40;;;;;;5036904;28;20083;-88
2022/06/15 10:10:21;;;;;;;2.92;1.75;;;21.90;94.40;;;;;;5036909;28;20567;-87
2022/06/15 10:13:02;;;;;;;6.07;1.70;;;22.00;94.30;;;;;;5036561;28;20029;-88
2022/06/15 10:15:43;;;;;;;4.35;1.90;;;21.90;94.30;;;;;;5037682;28;20522;-87
2022/06/15 10:18:30;;;;;;;3.13;1.88;;;22.00;94.20;;;;;;5036526;28;20496;-88
2022/06/15 10:21:12;;;;;;;6.30;2.03;;;22.00;94.10;;;;;;5036508;28;20021;-88
2022/06/15 10:24:04;;;;;;;5.03;2.15;;;22.00;94.00;;;;;;5054408;28;20051;-87
2022/06/15 10:26:43;;;;;;;3.88;1.88;;;22.00;94.00;;;;;;5036327;28;20037;-87
2022/06/15 10:29:15;;;;;;;2.50;1.83;;;22.00;93.90;;;;;;5036892;28;20025;-87
2022/06/15 10:32:09;;;;;;;5.95;1.92;;;22.10;93.90;;;;;;5036659;28;20484;-88
2022/06/15 10:34:45;;;;;;;4.15;1.70;;;22.10;93.80;;;;;;5054883;28;20036;-87
2022/06/15 10:37:41;;;;;;;2.33;1.88;;;22.10;93.80;;;;;;5036435;28;20376;-88
2022/06/15 10:40:31;;;;;;;4.97;1.70;;;22.20;93.70;;;;;;5034437;28;20033;-88
2022/06/15 10:43:02;;;;;;;2.95;1.85;;;22.20;93.80;;;;;;5016674;28;20033;-87
2022/06/15 10:45:42;;;;;;;3.42;1.55;;;22.20;93.70;;;;;;5016081;28;20392;-88
2022/06/15 10:48:17;;;;;;;2.03;1.60;;;22.20;93.60;;;;;;5016054;28;20116;-88
2022/06/15 10:50:58;;;;;;;4.32;1.92;;;22.20;93.60;;;;;;5017155;28;20364;-88
2022/06/15 10:53:27;;;;;;;4.07;1.60;;;22.30;93.50;;;;;;5033831;28;20108;-87
2022/06/15 11:02:07;;;;;;;1.73;1.48;;;22.30;93.40;;;;;;5033960;28;20400;-88
2022/06/15 11:04:45;;;;;;;4.57;1.60;;;22.30;93.30;;;;;;5016099;28;20112;-88
2022/06/15 11:07:23;;;;;;;2.78;1.80;;;22.40;93.40;;;;;;5016063;28;20412;-88
2022/06/15 11:09:55;;;;;;;2.22;1.40;;;22.40;93.40;;;;;;5016550;28;20108;-88
2022/06/15 11:12:35;;;;;;;3.83;1.98;;;22.40;93.40;;;;;;5015960;28;20091;-88
2022/06/15 11:15:07;;;;;;;3.55;1.70;;;22.40;93.30;;;;;;5015870;28;20028;-87
2022/06/15 11:20:35;;;;;;;2.50;1.70;;;22.50;93.30;;;;;;5034071;28;20087;-88
2022/06/15 11:23:28;;;;;;;8.13;1.75;;;22.50;93.30;;;;;;5015744;28;20033;-87
2022/06/15 11:26:52;;;;;;;5.40;1.77;;;22.50;93.30;;;;;;5033544;28;20048;-87
2022/06/15 11:28:51;;;;;;;2.90;1.70;;;22.50;93.30;;;;;;5033308;28;20056;-88
2022/06/15 11:31:17;;;;;;;3.67;1.70;;;22.50;93.70;;;;;;5015693;28;20080;-87
2022/06/15 11:33:57;;;;;;;6.53;1.75;;;22.50;93.30;;;;;;5015701;28;20156;-87
2022/06/15 11:36:29;;;;;;;4.20;2.00;;;22.50;93.30;;;;;;5033285;28;20026;-88
2022/06/15 11:38:59;;;;;;;5.20;1.80;;;22.60;93.40;;;;;;5030544;28;20037;-88
2022/06/15 11:41:27;;;;;;;2.50;1.95;;;22.60;93.40;;;;;;5053142;28;20101;-88
2022/06/15 11:43:55;;;;;;;3.30;1.70;;;22.60;93.40;;;;;;5035629;28;20116;-88
2022/06/15 11:46:39;;;;;;;2.38;1.70;;;22.60;93.40;;;;;;5035448;28;20428;-88
2022/06/15 11:49:11;;;;;;;5.35;1.90;;;22.60;93.40;;;;;;5035405;28;20029;-87
2022/06/15 11:52:00;;;;;;;3.40;1.50;;;22.70;93.40;;;;;;5035226;28;20028;-88
2022/06/15 11:54:58;;;;;;;3.20;1.90;;;22.70;93.40;;;;;;5035174;28;20025;-88
2022/06/15 11:57:54;;;;;;;5.10;2.08;;;22.70;93.30;;;;;;5035965;28;20418;-88
2022/06/15 12:00:39;;;;;;;2.70;1.67;;;22.70;93.30;;;;;;5039157;28;20048;-88
2022/06/15 12:03:11;;;;;;;2.35;1.45;;;22.70;93.20;;;;;;5039063;28;20032;-88
2022/06/15 12:05:47;;;;;;;3.08;1.40;;;22.70;93.20;;;;;;5039053;28;20033;-88
2022/06/15 12:08:37;;;;;;;5.97;1.95;;;22.70;93.20;;;;;;5039037;28;20055;-88
2022/06/15 12:14:37;;;;;;;3.55;1.98;;;22.80;93.20;;;;;;5056657;28;20132;-87
2022/06/15 12:17:41;;;;;;;4.87;1.83;;;22.80;93.10;;;;;;5038856;28;20498;-88
2022/06/15 12:20:07;;;;;;;3.92;2.00;;;22.80;93.10;;;;;;5024688;28;20029;-88
2022/06/15 12:22:54;;;;;;;5.68;1.95;;;22.90;93.10;;;;;;5038572;28;20025;-87
2022/06/15 12:25:20;;;;;;;3.60;2.15;;;22.90;93.10;;;;;;5038668;28;20494;-87
2022/06/15 12:28:28;;;;;;;4.63;1.90;;;22.90;93.00;;;;;;5038505;28;20140;-87
2022/06/15 12:31:13;;;;;;;2.88;1.40;;;22.90;93.00;;;;;;5042436;28;20567;-88
2022/06/15 12:33:54;;;;;;;2.40;1.77;;;23.00;92.90;;;;;;5056521;28;20064;-87
2022/06/15 12:36:35;;;;;;;3.05;1.60;;;23.00;93.30;;;;;;5038467;28;20031;-87
2022/06/15 12:39:22;;;;;;;4.07;1.92;;;23.00;92.90;;;;;;5038282;28;20518;-87
2022/06/15 12:45:01;;;;;;;3.60;1.83;;;23.10;92.80;;;;;;5056746;28;20388;-87
2022/06/15 12:47:29;;;;;;;4.20;1.85;;;23.20;92.70;;;;;;5038243;28;20036;-88
2022/06/15 12:50:07;;;;;;;2.53;1.90;;;23.30;92.60;;;;;;5038114;28;20029;-87
2022/06/15 12:52:35;;;;;;;2.53;1.80;;;23.30;92.50;;;;;;5038207;28;20025;-88
2022/06/15 12:55:52;;;;;;;2.22;1.50;;;23.40;92.40;;;;;;5038035;28;20032;-88
2022/06/15 12:58:38;;;;;;;3.65;1.70;;;23.50;92.30;;;;;;5012027;28;20044;-88
2022/06/15 13:01:17;;;;;;;3.42;1.48;;;23.60;92.10;;;;;;5037996;28;20033;-87
2022/06/15 13:03:51;;;;;;;2.90;1.90;;;23.70;92.00;;;;;;5055949;28;20047;-88
2022/06/15 13:06:23;;;;;;;3.95;1.70;;;23.70;91.90;;;;;;5038051;28;20032;-88
2022/06/15 13:09:14;;;;;;;4.85;1.70;;;23.90;91.80;;;;;;5055340;28;20043;-89
2022/06/15 13:11:51;;;;;;;4.72;1.67;;;23.90;91.70;;;;;;5046844;28;20061;-88
2022/06/15 13:14:19;;;;;;;2.42;1.50;;;24.00;91.60;;;;;;5037642;28;20082;-88
2022/06/15 13:17:02;;;;;;;2.63;1.40;;;24.10;91.40;;;;;;5055680;28;20017;-88
2022/06/15 13:19:42;;;;;;;2.70;1.60;;;24.30;91.20;;;;;;5037684;28;20381;-88
2022/06/15 13:22:14;;;;;;;4.47;1.50;;;24.40;91.10;;;;;;5037603;28;20554;-88
2022/06/15 13:24:57;;;;;;;5.80;1.90;;;24.50;91.00;;;;;;5037661;28;20045;-88
2022/06/15 13:27:35;;;;;;;2.85;1.55;;;24.50;90.90;;;;;;5055740;28;20017;-88
2022/06/15 13:30:32;;;;;;;7.22;1.70;;;24.70;90.70;;;;;;5037680;28;20017;-88
2022/06/15 13:33:09;;;;;;;2.53;1.58;;;24.80;90.60;;;;;;5037241;28;20120;-88
2022/06/15 13:36:12;;;;;;;3.60;1.70;;;24.90;90.50;;;;;;5055546;28;20027;-88
2022/06/15 13:38:43;;;;;;;4.63;1.65;;;24.90;90.40;;;;;;5037057;28;20202;-88